createdAt,value
2022-09-23T00:00:05.498Z,8.20
2022-09-23T00:02:38.249Z,8.20
2022-09-23T00:05:11.432Z,8.10
2022-09-23T00:07:43.719Z,8.10
2022-09-23T00:10:15.733Z,8.10
2022-09-23T00:12:48.623Z,8.10
2022-09-23T00:15:22.164Z,8.10
2022-09-23T00:17:57.130Z,8.10
2022-09-23T00:20:29.318Z,8.10
2022-09-23T00:23:05.258Z,8.00
2022-09-23T00:25:37.161Z,8.00
2022-09-23T00:28:09.204Z,8.00
2022-09-23T00:31:38.396Z,8.00
2022-09-23T00:34:11.239Z,8.00
2022-09-23T00:36:43.532Z,8.00
2022-09-23T00:39:15.546Z,7.90
2022-09-23T00:41:47.552Z,7.90
2022-09-23T00:44:51.113Z,7.90
2022-09-23T00:47:54.853Z,7.90
2022-09-23T00:50:39.605Z,7.80
2022-09-23T00:53:19.662Z,7.80
2022-09-23T00:56:02.181Z,7.80
2022-09-23T00:58:39.696Z,7.80
2022-09-23T01:01:14.486Z,7.80
2022-09-23T01:03:46.738Z,7.70
2022-09-23T01:06:19.412Z,7.70
2022-09-23T01:08:52.436Z,7.70
2022-09-23T01:12:03.340Z,7.70
2022-09-23T01:15:06.475Z,7.60
2022-09-23T01:18:16.613Z,7.60
2022-09-23T01:21:26.254Z,7.60
2022-09-23T01:24:40.655Z,7.60
2022-09-23T01:27:35.359Z,7.50
2022-09-23T01:30:56.500Z,7.50
2022-09-23T01:34:02.465Z,7.50
2022-09-23T01:37:03.598Z,7.50
2022-09-23T01:40:01.703Z,7.40
2022-09-23T01:42:51.133Z,7.40
2022-09-23T01:45:38.912Z,7.30
2022-09-23T01:48:21.859Z,7.30
2022-09-23T01:51:25.248Z,7.30
2022-09-23T01:54:27.187Z,7.20
2022-09-23T01:57:16.803Z,7.20
2022-09-23T02:00:10.224Z,7.20
2022-09-23T02:02:59.291Z,7.10
2022-09-23T02:05:42.516Z,7.10
2022-09-23T02:08:37.597Z,7.10
2022-09-23T02:11:18.101Z,7.10
2022-09-23T02:14:09.783Z,7.10
2022-09-23T02:16:51.047Z,7.10
2022-09-23T02:19:32.210Z,7.10
2022-09-23T02:22:48.320Z,7.10
2022-09-23T02:25:51.954Z,7.00
2022-09-23T02:29:10.752Z,7.00
2022-09-23T02:32:17.753Z,7.00
2022-09-23T02:35:20.176Z,6.90
2022-09-23T02:38:15.399Z,6.90
2022-09-23T02:41:11.279Z,6.90
2022-09-23T02:44:16.604Z,6.90
2022-09-23T02:46:51.981Z,6.90
2022-09-23T02:49:27.483Z,6.90
2022-09-23T02:52:07.505Z,6.90
2022-09-23T02:54:40.657Z,6.90
2022-09-23T02:57:14.481Z,6.90
2022-09-23T02:59:46.741Z,6.90
2022-09-23T03:02:36.042Z,6.90
2022-09-23T03:05:33.924Z,6.80
2022-09-23T03:08:48.080Z,6.80
2022-09-23T03:11:26.044Z,6.80
2022-09-23T03:14:07.556Z,6.70
2022-09-23T03:17:15.908Z,6.70
2022-09-23T03:20:03.493Z,6.70
2022-09-23T03:22:55.808Z,6.70
2022-09-23T03:25:35.836Z,6.60
2022-09-23T03:28:10.855Z,6.70
2022-09-23T03:30:44.028Z,6.60
2022-09-23T03:33:18.251Z,6.60
2022-09-23T03:36:20.943Z,6.60
2022-09-23T03:39:18.976Z,6.60
2022-09-23T03:42:03.629Z,6.60
2022-09-23T03:44:56.818Z,6.60
2022-09-23T03:47:29.001Z,6.70
2022-09-23T03:50:01.967Z,6.70
2022-09-23T03:52:34.153Z,6.70
2022-09-23T03:55:10.432Z,6.70
2022-09-23T03:57:42.765Z,6.60
2022-09-23T04:00:16.255Z,6.60
2022-09-23T04:02:49.764Z,6.60
2022-09-23T04:05:21.719Z,6.60
2022-09-23T04:07:54.935Z,6.60
2022-09-23T04:10:27.505Z,6.60
2022-09-23T04:12:59.368Z,6.50
2022-09-23T04:15:31.309Z,6.50
2022-09-23T04:18:03.404Z,6.50
2022-09-23T04:20:35.329Z,6.50
2022-09-23T04:23:09.532Z,6.50
2022-09-23T04:25:46.211Z,6.50
2022-09-23T04:28:19.139Z,6.50
2022-09-23T04:30:52.179Z,6.50
2022-09-23T04:33:25.748Z,6.50
2022-09-23T04:35:57.678Z,6.40
2022-09-23T04:38:29.941Z,6.40
2022-09-23T04:41:01.982Z,6.30
2022-09-23T04:43:34.027Z,6.30
2022-09-23T04:46:09.371Z,6.30
2022-09-23T04:48:43.614Z,6.30
2022-09-23T04:51:18.959Z,6.30
2022-09-23T04:53:54.120Z,6.30
2022-09-23T04:56:28.789Z,6.30
2022-09-23T04:59:03.046Z,6.30
2022-09-23T05:01:36.298Z,6.30
2022-09-23T05:04:13.867Z,6.30
2022-09-23T05:06:45.814Z,6.30
2022-09-23T05:09:17.956Z,6.40
2022-09-23T05:11:49.938Z,6.40
2022-09-23T05:14:22.225Z,6.40
2022-09-23T05:16:54.147Z,6.40
2022-09-23T05:19:26.198Z,6.40
2022-09-23T05:21:58.207Z,6.50
2022-09-23T05:24:30.106Z,6.50
2022-09-23T05:27:02.061Z,6.50
2022-09-23T05:29:36.186Z,6.60
2022-09-23T05:32:09.969Z,6.60
2022-09-23T05:34:41.997Z,6.60
2022-09-23T05:37:13.928Z,6.60
2022-09-23T05:39:45.900Z,6.70
2022-09-23T05:42:18.262Z,6.70
2022-09-23T05:44:51.232Z,6.80
2022-09-23T05:47:23.375Z,6.80
2022-09-23T05:50:00.148Z,6.90
2022-09-23T05:52:38.497Z,6.90
2022-09-23T05:55:17.601Z,7.00
2022-09-23T05:57:49.554Z,7.00
2022-09-23T06:00:21.673Z,7.10
2022-09-23T06:02:53.812Z,7.20
2022-09-23T06:05:25.937Z,7.30
2022-09-23T06:07:58.379Z,7.40
2022-09-23T06:10:30.895Z,7.50
2022-09-23T06:13:08.727Z,7.70
2022-09-23T06:15:41.690Z,7.80
2022-09-23T06:18:15.257Z,8.00
2022-09-23T06:20:48.145Z,8.30
2022-09-23T06:23:23.755Z,8.50
2022-09-23T06:26:08.875Z,8.80
2022-09-23T06:28:44.933Z,9.00
2022-09-23T06:31:49.298Z,9.30
2022-09-23T06:34:21.657Z,9.90
2022-09-23T06:36:55.600Z,10.40
2022-09-23T06:39:30.099Z,11.00
2022-09-23T06:42:02.345Z,11.70
2022-09-23T06:44:35.074Z,12.10
2022-09-23T06:47:07.063Z,12.50
2022-09-23T06:49:39.283Z,12.70
2022-09-23T06:52:11.490Z,12.70
2022-09-23T06:54:43.444Z,12.70
2022-09-23T06:57:15.445Z,12.80
2022-09-23T06:59:47.702Z,12.90
2022-09-23T07:02:19.755Z,13.20
2022-09-23T07:04:52.272Z,13.40
2022-09-23T07:07:31.556Z,13.70
2022-09-23T07:10:07.360Z,14.00
2022-09-23T07:12:40.653Z,14.10
2022-09-23T07:15:12.829Z,14.60
2022-09-23T07:17:46.272Z,14.90
2022-09-23T07:20:18.694Z,15.40
2022-09-23T07:22:52.235Z,15.90
2022-09-23T07:25:24.469Z,16.20
2022-09-23T07:27:56.663Z,16.50
2022-09-23T07:30:28.645Z,16.70
2022-09-23T07:33:01.059Z,17.00
2022-09-23T07:35:34.324Z,17.60
2022-09-23T07:38:11.346Z,18.10
2022-09-23T07:40:43.987Z,18.30
2022-09-23T07:43:16.097Z,18.10
2022-09-23T07:45:49.905Z,17.90
2022-09-23T07:48:22.843Z,17.80
2022-09-23T07:50:54.955Z,17.40
2022-09-23T07:53:28.497Z,17.20
2022-09-23T07:56:01.273Z,16.90
2022-09-23T07:58:35.869Z,16.60
2022-09-23T08:01:10.314Z,16.20
2022-09-23T08:03:45.835Z,16.00
2022-09-23T08:06:17.953Z,15.70
2022-09-23T08:08:53.303Z,15.40
2022-09-23T08:11:28.380Z,15.20
2022-09-23T08:14:00.483Z,15.00
2022-09-23T08:16:32.496Z,14.70
2022-09-23T08:19:06.567Z,14.60
2022-09-23T08:21:40.325Z,14.50
2022-09-23T08:24:21.824Z,14.30
2022-09-23T08:26:55.201Z,14.30
2022-09-23T08:29:28.012Z,14.30
2022-09-23T08:32:00.158Z,14.30
2022-09-23T08:34:32.461Z,14.40
2022-09-23T08:37:11.203Z,14.50
2022-09-23T08:39:43.774Z,14.50
2022-09-23T08:42:28.216Z,14.50
2022-09-23T08:45:07.182Z,14.70
2022-09-23T08:47:53.480Z,14.80
2022-09-23T08:50:50.200Z,14.90
2022-09-23T08:53:28.553Z,15.00
2022-09-23T08:56:10.588Z,15.20
2022-09-23T08:58:52.990Z,15.30
2022-09-23T09:01:47.929Z,15.40
2022-09-23T09:04:36.723Z,15.40
2022-09-23T09:07:37.715Z,15.40
2022-09-23T09:10:22.594Z,15.40
2022-09-23T09:13:16.411Z,15.50
2022-09-23T09:16:09.808Z,15.50
2022-09-23T09:19:02.289Z,15.50
2022-09-23T09:21:42.563Z,15.60
2022-09-23T09:24:28.997Z,15.70
2022-09-23T09:27:13.152Z,15.80
2022-09-23T09:30:17.176Z,15.90
2022-09-23T09:33:13.271Z,16.00
2022-09-23T09:36:03.197Z,16.20
2022-09-23T09:38:45.733Z,16.30
2022-09-23T09:41:21.473Z,16.40
2022-09-23T09:44:00.942Z,16.50
2022-09-23T09:46:47.800Z,16.60
2022-09-23T09:49:48.933Z,16.80
2022-09-23T09:52:29.614Z,16.90
2022-09-23T09:55:14.586Z,17.10
2022-09-23T09:58:04.228Z,17.10
2022-09-23T10:00:42.848Z,17.20
2022-09-23T10:03:33.003Z,17.40
2022-09-23T10:06:32.431Z,17.50
2022-09-23T10:09:31.607Z,17.60
2022-09-23T10:12:18.504Z,17.80
2022-09-23T10:14:57.072Z,17.90
2022-09-23T10:17:38.584Z,18.00
2022-09-23T10:20:15.708Z,18.10
2022-09-23T10:22:48.787Z,18.20
2022-09-23T10:25:26.695Z,18.40
2022-09-23T10:27:58.646Z,18.40
2022-09-23T10:31:14.091Z,18.50
2022-09-23T10:34:02.083Z,18.70
2022-09-23T10:37:08.791Z,18.80
2022-09-23T10:40:20.224Z,18.90
2022-09-23T10:43:37.483Z,18.90
2022-09-23T10:46:49.654Z,19.00
2022-09-23T10:49:47.637Z,19.10
2022-09-23T10:52:40.044Z,19.20
2022-09-23T10:55:43.967Z,19.30
2022-09-23T10:58:38.682Z,19.50
2022-09-23T11:02:22.860Z,19.60
2022-09-23T11:05:15.395Z,19.90
2022-09-23T11:08:34.859Z,20.00
2022-09-23T11:11:46.024Z,20.00
2022-09-23T11:14:44.045Z,20.20
2022-09-23T11:18:08.027Z,20.30
2022-09-23T11:20:52.625Z,20.40
2022-09-23T11:23:51.616Z,20.60
2022-09-23T11:26:55.293Z,20.70
2022-09-23T11:30:06.368Z,20.90
2022-09-23T11:33:13.980Z,21.00
2022-09-23T11:36:22.020Z,21.10
2022-09-23T11:39:08.037Z,21.10
2022-09-23T11:41:50.495Z,21.20
2022-09-23T11:44:35.670Z,21.20
2022-09-23T11:47:26.277Z,21.30
2022-09-23T11:50:25.890Z,21.50
2022-09-23T11:53:17.661Z,21.70
2022-09-23T11:56:34.728Z,21.80
2022-09-23T11:59:20.991Z,22.10
2022-09-23T12:02:30.498Z,22.20
2022-09-23T12:05:34.551Z,22.30
2022-09-23T12:08:35.415Z,22.30
2022-09-23T12:11:14.895Z,22.30
2022-09-23T12:14:21.559Z,22.30
2022-09-23T12:17:27.513Z,22.50
2022-09-23T12:20:28.448Z,22.60
2022-09-23T12:23:38.728Z,22.60
2022-09-23T12:26:32.534Z,22.50
2022-09-23T12:29:06.885Z,22.40
2022-09-23T12:31:46.716Z,22.50
2022-09-23T12:34:30.473Z,22.50
2022-09-23T12:37:11.578Z,22.40
2022-09-23T12:39:46.855Z,22.30
2022-09-23T12:42:22.944Z,22.30
2022-09-23T12:45:31.382Z,22.30
2022-09-23T12:48:18.673Z,22.40
2022-09-23T12:51:03.884Z,22.60
2022-09-23T12:53:59.694Z,22.60
2022-09-23T12:56:54.463Z,22.40
2022-09-23T12:59:31.662Z,22.40
2022-09-23T13:02:31.596Z,22.40
2022-09-23T13:05:32.396Z,22.40
2022-09-23T13:08:25.268Z,22.50
2022-09-23T13:11:02.476Z,22.50
2022-09-23T13:13:56.762Z,22.40
2022-09-23T13:16:41.594Z,22.30
2022-09-23T13:19:35.392Z,22.30
2022-09-23T13:22:14.635Z,22.30
2022-09-23T13:25:27.891Z,22.50
2022-09-23T13:28:03.814Z,22.60
2022-09-23T13:30:55.891Z,22.60
2022-09-23T13:33:53.073Z,22.50
2022-09-23T13:36:42.711Z,22.40
2022-09-23T13:39:24.746Z,22.30
2022-09-23T13:42:04.250Z,22.20
2022-09-23T13:44:40.814Z,22.00
2022-09-23T13:47:14.792Z,21.90
2022-09-23T13:49:48.401Z,21.80
2022-09-23T13:52:28.085Z,21.80
2022-09-23T13:55:03.557Z,21.80
2022-09-23T13:57:36.910Z,21.90
2022-09-23T14:00:21.230Z,22.00
2022-09-23T14:02:54.477Z,22.20
2022-09-23T14:05:36.815Z,22.30
2022-09-23T14:08:09.164Z,22.40
2022-09-23T14:10:46.138Z,22.60
2022-09-23T14:13:32.574Z,22.70
2022-09-23T14:16:18.208Z,22.90
2022-09-23T14:18:55.657Z,23.00
2022-09-23T14:21:36.269Z,23.10
2022-09-23T14:24:30.567Z,23.10
2022-09-23T14:27:07.447Z,23.30
2022-09-23T14:29:49.964Z,23.20
2022-09-23T14:35:40.837Z,23.10
2022-09-23T14:38:47.224Z,22.90
2022-09-23T14:41:25.686Z,22.80
2022-09-23T14:44:00.591Z,22.60
2022-09-23T14:46:38.601Z,22.40
2022-09-23T14:49:11.229Z,22.20
2022-09-23T14:51:53.847Z,22.10
2022-09-23T14:54:46.855Z,21.90
2022-09-23T14:57:24.179Z,21.80
2022-09-23T15:00:00.757Z,21.70
2022-09-23T15:03:02.532Z,21.50
2022-09-23T15:05:47.774Z,21.40
2022-09-23T15:08:27.190Z,21.30
2022-09-23T15:11:07.823Z,21.10
2022-09-23T15:13:45.170Z,21.00
2022-09-23T15:16:27.561Z,20.90
2022-09-23T15:19:01.309Z,20.90
2022-09-23T15:21:42.334Z,20.70
2022-09-23T15:24:42.812Z,20.60
2022-09-23T15:27:30.810Z,20.40
2022-09-23T15:30:17.438Z,20.40
2022-09-23T15:32:50.588Z,20.20
2022-09-23T15:35:26.717Z,20.20
2022-09-23T15:38:01.735Z,20.10
2022-09-23T15:40:36.545Z,20.10
2022-09-23T15:43:20.620Z,20.00
2022-09-23T15:45:59.021Z,19.90
2022-09-23T15:48:42.373Z,19.90
2022-09-23T15:51:25.429Z,19.70
2022-09-23T15:53:58.637Z,19.60
2022-09-23T15:56:30.958Z,19.50
2022-09-23T15:59:03.894Z,19.40
2022-09-23T16:01:37.316Z,19.30
2022-09-23T16:04:10.819Z,19.20
2022-09-23T16:06:45.404Z,19.20
2022-09-23T16:09:19.248Z,19.10
2022-09-23T16:11:52.090Z,19.00
2022-09-23T16:14:24.474Z,18.90
2022-09-23T16:16:56.981Z,18.80
2022-09-23T16:19:34.430Z,18.80
2022-09-23T16:22:06.543Z,18.70
2022-09-23T16:24:40.301Z,18.60
2022-09-23T16:27:17.479Z,18.60
2022-09-23T16:29:49.776Z,18.50
2022-09-23T16:32:23.530Z,18.40
2022-09-23T16:34:58.080Z,18.30
2022-09-23T16:37:30.519Z,18.20
2022-09-23T16:40:04.487Z,18.10
2022-09-23T16:42:41.823Z,18.10
2022-09-23T16:45:17.734Z,18.00
2022-09-23T16:47:52.367Z,17.90
2022-09-23T16:50:25.001Z,17.90
2022-09-23T16:52:57.364Z,17.80
2022-09-23T16:55:35.361Z,17.70
2022-09-23T16:58:07.697Z,17.70
2022-09-23T17:00:58.401Z,17.60
2022-09-23T17:03:50.698Z,17.50
2022-09-23T17:06:27.474Z,17.50
2022-09-23T17:09:00.130Z,17.40
2022-09-23T17:11:34.241Z,17.30
2022-09-23T17:14:10.518Z,17.30
2022-09-23T17:16:43.328Z,17.20
2022-09-23T17:19:16.392Z,17.10
2022-09-23T17:21:49.280Z,17.00
2022-09-23T17:24:21.795Z,16.90
2022-09-23T17:26:54.706Z,16.90
2022-09-23T17:29:29.126Z,16.70
2022-09-23T17:32:02.048Z,16.60
2022-09-23T17:34:36.416Z,16.60
2022-09-23T17:37:08.577Z,16.50
2022-09-23T17:39:42.912Z,16.40
2022-09-23T17:42:21.889Z,16.30
2022-09-23T17:45:00.157Z,16.20
2022-09-23T17:47:33.697Z,16.10
2022-09-23T17:50:07.286Z,16.00
2022-09-23T17:52:40.159Z,15.90
2022-09-23T17:55:12.662Z,15.90
2022-09-23T17:57:50.130Z,15.80
2022-09-23T18:00:23.303Z,15.70
2022-09-23T18:02:55.909Z,15.70
2022-09-23T18:05:28.412Z,15.60
2022-09-23T18:08:05.295Z,15.50
2022-09-23T18:10:38.440Z,15.40
2022-09-23T18:13:11.166Z,15.30
2022-09-23T18:15:45.290Z,15.30
2022-09-23T18:18:17.979Z,15.20
2022-09-23T18:20:51.230Z,15.10
2022-09-23T18:23:26.138Z,15.10
2022-09-23T18:25:58.482Z,15.10
2022-09-23T18:28:34.715Z,15.00
2022-09-23T18:31:09.914Z,15.00
2022-09-23T18:33:42.869Z,15.00
2022-09-23T18:36:21.659Z,14.90
2022-09-23T18:38:55.398Z,14.80
2022-09-23T18:41:27.841Z,14.80
2022-09-23T18:44:00.910Z,14.80
2022-09-23T18:46:36.995Z,14.80
2022-09-23T18:49:28.094Z,14.70
2022-09-23T18:52:21.409Z,14.70
2022-09-23T18:54:55.071Z,14.70
2022-09-23T18:57:27.382Z,14.60
2022-09-23T19:00:00.025Z,14.60
2022-09-23T19:02:33.233Z,14.60
2022-09-23T19:05:07.132Z,14.60
2022-09-23T19:07:42.761Z,14.60
2022-09-23T19:10:15.084Z,14.60
2022-09-23T19:12:47.435Z,14.50
2022-09-23T19:15:20.370Z,14.50
2022-09-23T19:17:53.073Z,14.50
2022-09-23T19:20:25.736Z,14.50
2022-09-23T19:22:58.159Z,14.40
2022-09-23T19:25:31.127Z,14.40
2022-09-23T19:28:08.908Z,14.40
2022-09-23T19:30:41.767Z,14.30
2022-09-23T19:33:13.953Z,14.30
2022-09-23T19:35:51.867Z,14.20
2022-09-23T19:38:25.063Z,14.20
2022-09-23T19:40:57.904Z,14.10
2022-09-23T19:43:38.181Z,14.10
2022-09-23T19:46:10.779Z,14.00
2022-09-23T19:49:00.761Z,13.90
2022-09-23T19:51:34.675Z,13.90
2022-09-23T19:54:09.254Z,13.90
2022-09-23T19:56:51.161Z,13.90
2022-09-23T19:59:28.260Z,13.90
2022-09-23T20:02:02.606Z,13.80
2022-09-23T20:04:35.701Z,13.80
2022-09-23T20:07:09.628Z,13.80
2022-09-23T20:09:41.937Z,13.70
2022-09-23T20:12:14.494Z,13.70
2022-09-23T20:14:46.667Z,13.70
2022-09-23T20:17:20.020Z,13.60
2022-09-23T20:19:52.495Z,13.60
2022-09-23T20:22:26.676Z,13.60
2022-09-23T20:25:04.767Z,13.60
2022-09-23T20:27:39.416Z,13.50
2022-09-23T20:30:11.953Z,13.50
2022-09-23T20:32:44.918Z,13.50
2022-09-23T20:35:17.814Z,13.50
2022-09-23T20:37:50.173Z,13.40
2022-09-23T20:40:23.080Z,13.40
2022-09-23T20:42:55.225Z,13.40
2022-09-23T20:45:27.180Z,13.30
2022-09-23T20:48:03.430Z,13.30
2022-09-23T20:50:37.264Z,13.30
2022-09-23T20:53:10.152Z,13.20
2022-09-23T20:55:57.064Z,13.20
2022-09-23T20:58:31.220Z,13.20
2022-09-23T21:01:10.768Z,13.10
2022-09-23T21:03:46.592Z,13.20
2022-09-23T21:06:20.193Z,13.10
2022-09-23T21:08:54.770Z,13.10
2022-09-23T21:11:27.450Z,13.20
2022-09-23T21:14:01.519Z,13.20
2022-09-23T21:16:34.174Z,13.20
2022-09-23T21:19:09.336Z,13.10
2022-09-23T21:21:41.396Z,13.10
2022-09-23T21:27:17.529Z,13.00
2022-09-23T21:29:49.691Z,12.90
2022-09-23T21:32:21.850Z,12.90
2022-09-23T21:34:54.043Z,12.90
2022-09-23T21:37:27.261Z,12.80
2022-09-23T21:40:18.126Z,12.90
2022-09-23T21:43:09.973Z,12.80
2022-09-23T21:45:43.068Z,12.80
2022-09-23T21:48:15.747Z,12.80
2022-09-23T21:50:54.777Z,12.80
2022-09-23T21:53:31.008Z,12.80
2022-09-23T21:56:09.037Z,12.80
2022-09-23T21:58:45.866Z,12.70
2022-09-23T22:01:20.612Z,12.70
2022-09-23T22:04:10.484Z,12.60
2022-09-23T22:06:46.789Z,12.60
2022-09-23T22:09:21.251Z,12.50
2022-09-23T22:12:07.534Z,12.50
2022-09-23T22:14:42.882Z,12.50
2022-09-23T22:17:16.838Z,12.50
2022-09-23T22:19:49.274Z,12.40
2022-09-23T22:22:21.863Z,12.30
2022-09-23T22:24:53.931Z,12.30
2022-09-23T22:27:27.275Z,12.30
2022-09-23T22:30:28.388Z,12.30
2022-09-23T22:33:21.104Z,12.20
2022-09-23T22:36:00.458Z,12.20
2022-09-23T22:38:33.291Z,12.20
2022-09-23T22:41:06.566Z,12.20
2022-09-23T22:43:38.772Z,12.10
2022-09-23T22:46:10.765Z,12.10
2022-09-23T22:48:44.296Z,12.10
2022-09-23T22:51:16.463Z,12.10
2022-09-23T22:53:49.451Z,12.00
2022-09-23T22:56:22.417Z,12.00
2022-09-23T22:58:56.039Z,12.00
2022-09-23T23:01:33.586Z,11.90
2022-09-23T23:04:08.389Z,11.90
2022-09-23T23:06:42.814Z,12.00
2022-09-23T23:09:17.152Z,12.00
2022-09-23T23:11:49.620Z,12.00
2022-09-23T23:14:21.738Z,11.90
2022-09-23T23:16:54.372Z,12.00
2022-09-23T23:19:26.388Z,12.00
2022-09-23T23:21:58.328Z,11.90
2022-09-23T23:24:30.570Z,11.90
2022-09-23T23:27:02.675Z,11.90
2022-09-23T23:29:34.756Z,11.90
2022-09-23T23:32:09.975Z,11.90
2022-09-23T23:34:42.119Z,11.80
2022-09-23T23:37:17.669Z,11.80
2022-09-23T23:39:52.156Z,11.80
2022-09-23T23:42:25.030Z,11.70
2022-09-23T23:44:58.034Z,11.80
2022-09-23T23:47:30.446Z,11.80
2022-09-23T23:50:04.408Z,11.80
2022-09-23T23:52:36.898Z,11.80
2022-09-23T23:55:09.266Z,11.90
2022-09-23T23:57:42.504Z,11.90
